San Martin de los Andes, Argentina
Current Conditions -  °F | °C
As of 11:00 AM on Wednesday 26 Nov 2014 (Local Time) from SAZS Reporting Station
Clear Clear  
Wind Chill: 57°   Ceiling: Unl
Heat Index: 57°   Visibility: 6mi
Dew Point: 32°   Wind: 15mph
Humidity: 38%   Direction: 320°NW
Pressure: 30.09"   Gusts: NA
Location:  40.16°S, 71.36°W
Report Text: SAZS 261400Z 32013KT CAVOK 14/00 Q1019
Loading
Personal Weather Stations






























Interactive Weather Map New forecast layout! Learn more

10-Day Weather Forecast

Advertisements
Track Severe Weather on mobile